sensor_id;sensor_type;location;lat;lon;timestamp;noise_LAeq;noise_LA_min;noise_LA_max;noise_LA01;noise_LA95
72466;Laerm;60471;52.150;4.508;2023-03-11T00:00:39;68.02;37.94;86.80;;
72466;Laerm;60471;52.150;4.508;2023-03-11T00:03:08;67.55;37.91;86.53;;
72466;Laerm;60471;52.150;4.508;2023-03-11T00:05:38;67.86;38.03;85.75;;
72466;Laerm;60471;52.150;4.508;2023-03-11T00:08:07;68.14;37.79;85.98;;
72466;Laerm;60471;52.150;4.508;2023-03-11T00:10:38;68.94;37.39;87.00;;
72466;Laerm;60471;52.150;4.508;2023-03-11T00:13:08;67.97;37.12;86.62;;
72466;Laerm;60471;52.150;4.508;2023-03-11T00:15:36;67.74;37.83;85.91;;
72466;Laerm;60471;52.150;4.508;2023-03-11T00:18:04;68.14;36.46;86.17;;
72466;Laerm;60471;52.150;4.508;2023-03-11T00:20:35;68.32;37.15;86.20;;
72466;Laerm;60471;52.150;4.508;2023-03-11T00:23:03;68.19;36.74;85.91;;
72466;Laerm;60471;52.150;4.508;2023-03-11T00:25:33;68.76;36.67;86.16;;
72466;Laerm;60471;52.150;4.508;2023-03-11T00:28:00;68.82;36.62;86.45;;
72466;Laerm;60471;52.150;4.508;2023-03-11T00:30:27;68.73;36.73;86.07;;
72466;Laerm;60471;52.150;4.508;2023-03-11T00:32:56;68.63;35.51;85.66;;
72466;Laerm;60471;52.150;4.508;2023-03-11T00:35:28;68.81;37.08;86.11;;
72466;Laerm;60471;52.150;4.508;2023-03-11T00:37:58;68.46;37.09;86.60;;
72466;Laerm;60471;52.150;4.508;2023-03-11T00:40:28;67.49;36.82;86.52;;
72466;Laerm;60471;52.150;4.508;2023-03-11T00:42:55;68.76;36.74;85.71;;
72466;Laerm;60471;52.150;4.508;2023-03-11T00:45:22;68.71;36.88;85.97;;
72466;Laerm;60471;52.150;4.508;2023-03-11T00:47:50;68.96;36.98;86.73;;
72466;Laerm;60471;52.150;4.508;2023-03-11T00:50:21;68.93;36.13;86.27;;
72466;Laerm;60471;52.150;4.508;2023-03-11T00:52:49;68.47;35.63;86.19;;
72466;Laerm;60471;52.150;4.508;2023-03-11T00:55:20;68.16;36.90;86.09;;
72466;Laerm;60471;52.150;4.508;2023-03-11T00:57:55;67.94;36.31;86.64;;
72466;Laerm;60471;52.150;4.508;2023-03-11T01:00:24;67.71;36.06;86.98;;
72466;Laerm;60471;52.150;4.508;2023-03-11T01:02:54;67.80;36.32;85.71;;
72466;Laerm;60471;52.150;4.508;2023-03-11T01:05:25;68.93;35.90;86.28;;
72466;Laerm;60471;52.150;4.508;2023-03-11T01:07:52;68.32;36.12;87.03;;
72466;Laerm;60471;52.150;4.508;2023-03-11T01:10:18;69.10;36.57;86.34;;
72466;Laerm;60471;52.150;4.508;2023-03-11T01:12:45;68.21;36.99;86.77;;
72466;Laerm;60471;52.150;4.508;2023-03-11T01:15:22;68.68;35.94;86.92;;
72466;Laerm;60471;52.150;4.508;2023-03-11T01:17:48;68.57;37.09;86.64;;
72466;Laerm;60471;52.150;4.508;2023-03-11T01:20:15;68.75;36.62;87.03;;
72466;Laerm;60471;52.150;4.508;2023-03-11T01:22:42;68.60;36.29;87.01;;
72466;Laerm;60471;52.150;4.508;2023-03-11T01:25:13;69.01;35.51;85.96;;
72466;Laerm;60471;52.150;4.508;2023-03-11T01:27:39;69.48;36.48;86.88;;
72466;Laerm;60471;52.150;4.508;2023-03-11T01:30:07;68.90;36.54;86.50;;
72466;Laerm;60471;52.150;4.508;2023-03-11T01:32:33;68.78;36.14;86.94;;
72466;Laerm;60471;52.150;4.508;2023-03-11T01:35:00;69.06;35.98;85.82;;
72466;Laerm;60471;52.150;4.508;2023-03-11T01:37:26;68.65;35.97;86.08;;
72466;Laerm;60471;52.150;4.508;2023-03-11T01:39:52;67.84;35.77;86.47;;
72466;Laerm;60471;52.150;4.508;2023-03-11T01:42:18;68.83;34.96;86.35;;
72466;Laerm;60471;52.150;4.508;2023-03-11T01:44:45;69.36;35.99;87.20;;
72466;Laerm;60471;52.150;4.508;2023-03-11T01:49:38;68.47;35.20;86.70;;
72466;Laerm;60471;52.150;4.508;2023-03-11T01:52:07;69.46;36.25;86.62;;
72466;Laerm;60471;52.150;4.508;2023-03-11T01:54:38;69.12;36.07;87.09;;
72466;Laerm;60471;52.150;4.508;2023-03-11T01:57:10;68.82;35.86;87.35;;
72466;Laerm;60471;52.150;4.508;2023-03-11T01:59:42;38.38;35.56;43.60;;
72466;Laerm;60471;52.150;4.508;2023-03-11T02:02:35;69.28;35.95;86.10;;
72466;Laerm;60471;52.150;4.508;2023-03-11T02:05:03;69.11;36.05;86.13;;
72466;Laerm;60471;52.150;4.508;2023-03-11T02:07:30;69.47;35.92;87.13;;
72466;Laerm;60471;52.150;4.508;2023-03-11T02:09:56;69.52;36.02;86.49;;
72466;Laerm;60471;52.150;4.508;2023-03-11T02:12:22;69.14;35.82;85.82;;
72466;Laerm;60471;52.150;4.508;2023-03-11T02:14:52;69.18;35.98;85.92;;
72466;Laerm;60471;52.150;4.508;2023-03-11T02:17:19;69.57;36.15;86.18;;
72466;Laerm;60471;52.150;4.508;2023-03-11T02:22:40;69.29;36.24;86.28;;
72466;Laerm;60471;52.150;4.508;2023-03-11T02:28:14;69.29;36.13;86.50;;
72466;Laerm;60471;52.150;4.508;2023-03-11T02:30:43;69.62;35.91;86.78;;
72466;Laerm;60471;52.150;4.508;2023-03-11T02:33:13;69.00;36.53;85.92;;
72466;Laerm;60471;52.150;4.508;2023-03-11T02:35:40;69.59;35.87;86.01;;
72466;Laerm;60471;52.150;4.508;2023-03-11T02:38:06;69.17;36.41;87.15;;
72466;Laerm;60471;52.150;4.508;2023-03-11T02:43:23;69.26;35.89;86.34;;
72466;Laerm;60471;52.150;4.508;2023-03-11T02:45:52;68.99;36.19;86.60;;
72466;Laerm;60471;52.150;4.508;2023-03-11T02:48:20;69.64;36.07;86.60;;
72466;Laerm;60471;52.150;4.508;2023-03-11T02:50:47;69.57;35.91;86.55;;
72466;Laerm;60471;52.150;4.508;2023-03-11T02:53:14;68.92;36.08;86.27;;
72466;Laerm;60471;52.150;4.508;2023-03-11T02:55:40;69.13;35.96;86.36;;
72466;Laerm;60471;52.150;4.508;2023-03-11T02:58:07;69.34;35.98;85.83;;
72466;Laerm;60471;52.150;4.508;2023-03-11T03:00:33;69.44;36.38;87.30;;
72466;Laerm;60471;52.150;4.508;2023-03-11T03:02:59;68.98;36.00;86.23;;
72466;Laerm;60471;52.150;4.508;2023-03-11T03:05:26;68.78;36.72;86.88;;
72466;Laerm;60471;52.150;4.508;2023-03-11T03:07:52;68.94;36.23;86.02;;
72466;Laerm;60471;52.150;4.508;2023-03-11T03:10:20;69.26;36.08;87.03;;
72466;Laerm;60471;52.150;4.508;2023-03-11T03:12:47;68.58;35.96;85.99;;
72466;Laerm;60471;52.150;4.508;2023-03-11T03:15:13;69.34;36.60;86.32;;
72466;Laerm;60471;52.150;4.508;2023-03-11T03:17:41;68.74;36.29;86.16;;
72466;Laerm;60471;52.150;4.508;2023-03-11T03:20:08;69.24;35.51;86.46;;
72466;Laerm;60471;52.150;4.508;2023-03-11T03:22:38;68.54;36.82;86.04;;
72466;Laerm;60471;52.150;4.508;2023-03-11T03:25:05;68.82;36.17;86.87;;
72466;Laerm;60471;52.150;4.508;2023-03-11T03:27:33;68.85;35.19;86.18;;
72466;Laerm;60471;52.150;4.508;2023-03-11T03:29:59;69.34;36.13;86.24;;
72466;Laerm;60471;52.150;4.508;2023-03-11T03:32:26;69.36;36.25;86.59;;
72466;Laerm;60471;52.150;4.508;2023-03-11T03:34:52;69.49;36.18;87.07;;
72466;Laerm;60471;52.150;4.508;2023-03-11T03:37:27;68.78;36.08;86.72;;
72466;Laerm;60471;52.150;4.508;2023-03-11T03:39:54;69.16;36.39;86.27;;
72466;Laerm;60471;52.150;4.508;2023-03-11T03:42:21;69.43;36.10;86.92;;
72466;Laerm;60471;52.150;4.508;2023-03-11T03:44:47;69.30;36.07;86.70;;
72466;Laerm;60471;52.150;4.508;2023-03-11T03:47:13;69.45;35.72;86.07;;
72466;Laerm;60471;52.150;4.508;2023-03-11T03:49:39;69.28;35.59;86.92;;
72466;Laerm;60471;52.150;4.508;2023-03-11T03:52:06;69.02;36.21;86.44;;
72466;Laerm;60471;52.150;4.508;2023-03-11T03:54:33;69.34;35.85;87.13;;
72466;Laerm;60471;52.150;4.508;2023-03-11T03:57:00;69.04;35.55;86.15;;
72466;Laerm;60471;52.150;4.508;2023-03-11T03:59:26;68.96;35.66;86.93;;
72466;Laerm;60471;52.150;4.508;2023-03-11T04:01:52;68.97;36.12;86.48;;
72466;Laerm;60471;52.150;4.508;2023-03-11T04:04:18;69.07;36.07;86.33;;
72466;Laerm;60471;52.150;4.508;2023-03-11T04:06:45;69.02;36.54;86.37;;
72466;Laerm;60471;52.150;4.508;2023-03-11T04:09:11;69.11;36.83;87.00;;
72466;Laerm;60471;52.150;4.508;2023-03-11T04:11:38;69.56;36.26;86.73;;
72466;Laerm;60471;52.150;4.508;2023-03-11T04:14:05;69.59;36.08;86.51;;
72466;Laerm;60471;52.150;4.508;2023-03-11T04:16:32;69.14;36.20;86.82;;
72466;Laerm;60471;52.150;4.508;2023-03-11T04:18:58;69.38;35.92;86.31;;
72466;Laerm;60471;52.150;4.508;2023-03-11T04:21:24;69.39;36.71;86.94;;
72466;Laerm;60471;52.150;4.508;2023-03-11T04:23:50;69.25;36.13;87.06;;
72466;Laerm;60471;52.150;4.508;2023-03-11T04:26:16;69.27;36.48;86.32;;
72466;Laerm;60471;52.150;4.508;2023-03-11T04:28:43;69.22;36.29;86.49;;
72466;Laerm;60471;52.150;4.508;2023-03-11T04:31:09;69.61;36.37;86.15;;
72466;Laerm;60471;52.150;4.508;2023-03-11T04:33:36;69.49;36.19;86.33;;
72466;Laerm;60471;52.150;4.508;2023-03-11T04:36:07;69.50;36.25;86.29;;
72466;Laerm;60471;52.150;4.508;2023-03-11T04:38:34;69.34;35.77;86.05;;
72466;Laerm;60471;52.150;4.508;2023-03-11T04:41:03;69.74;36.04;86.36;;
72466;Laerm;60471;52.150;4.508;2023-03-11T04:43:30;69.53;36.00;87.20;;
72466;Laerm;60471;52.150;4.508;2023-03-11T04:45:57;69.50;36.41;86.35;;
72466;Laerm;60471;52.150;4.508;2023-03-11T04:48:23;69.78;36.37;86.36;;
72466;Laerm;60471;52.150;4.508;2023-03-11T04:50:52;69.80;36.15;86.79;;
72466;Laerm;60471;52.150;4.508;2023-03-11T04:53:21;69.57;36.30;86.71;;
72466;Laerm;60471;52.150;4.508;2023-03-11T04:55:47;70.01;36.97;86.18;;
72466;Laerm;60471;52.150;4.508;2023-03-11T04:58:13;69.98;37.15;86.48;;
72466;Laerm;60471;52.150;4.508;2023-03-11T05:00:40;69.61;36.61;86.33;;
72466;Laerm;60471;52.150;4.508;2023-03-11T05:03:06;69.60;36.24;85.83;;
72466;Laerm;60471;52.150;4.508;2023-03-11T05:05:32;69.99;36.94;86.51;;
72466;Laerm;60471;52.150;4.508;2023-03-11T05:07:58;69.74;37.02;86.92;;
72466;Laerm;60471;52.150;4.508;2023-03-11T05:10:25;69.95;36.59;86.83;;
72466;Laerm;60471;52.150;4.508;2023-03-11T05:12:51;69.96;36.16;86.06;;
72466;Laerm;60471;52.150;4.508;2023-03-11T05:15:18;69.86;37.23;86.44;;
72466;Laerm;60471;52.150;4.508;2023-03-11T05:17:45;69.80;36.68;86.44;;
72466;Laerm;60471;52.150;4.508;2023-03-11T05:20:13;69.80;36.38;86.40;;
72466;Laerm;60471;52.150;4.508;2023-03-11T05:22:39;69.91;37.08;87.09;;
72466;Laerm;60471;52.150;4.508;2023-03-11T05:25:06;69.43;36.76;86.31;;
72466;Laerm;60471;52.150;4.508;2023-03-11T05:27:32;69.94;37.75;86.52;;
72466;Laerm;60471;52.150;4.508;2023-03-11T05:29:58;69.73;37.20;86.11;;
72466;Laerm;60471;52.150;4.508;2023-03-11T05:32:24;70.18;38.40;86.34;;
72466;Laerm;60471;52.150;4.508;2023-03-11T05:34:51;69.82;38.76;86.45;;
72466;Laerm;60471;52.150;4.508;2023-03-11T05:37:17;70.00;39.57;86.06;;
72466;Laerm;60471;52.150;4.508;2023-03-11T05:39:44;69.93;40.71;86.55;;
72466;Laerm;60471;52.150;4.508;2023-03-11T05:42:10;69.78;37.80;86.86;;
72466;Laerm;60471;52.150;4.508;2023-03-11T05:44:36;69.80;38.88;86.45;;
72466;Laerm;60471;52.150;4.508;2023-03-11T05:47:03;69.90;38.35;86.67;;
72466;Laerm;60471;52.150;4.508;2023-03-11T05:49:29;70.07;38.89;87.16;;
72466;Laerm;60471;52.150;4.508;2023-03-11T05:51:55;70.09;39.63;87.47;;
72466;Laerm;60471;52.150;4.508;2023-03-11T05:54:21;70.24;40.54;86.35;;
72466;Laerm;60471;52.150;4.508;2023-03-11T05:56:48;70.08;39.61;86.57;;
72466;Laerm;60471;52.150;4.508;2023-03-11T05:59:15;70.23;39.17;86.83;;
72466;Laerm;60471;52.150;4.508;2023-03-11T06:01:43;70.01;38.50;86.26;;
72466;Laerm;60471;52.150;4.508;2023-03-11T06:04:10;69.88;38.20;86.53;;
72466;Laerm;60471;52.150;4.508;2023-03-11T06:06:39;70.13;39.14;86.21;;
72466;Laerm;60471;52.150;4.508;2023-03-11T06:09:10;70.05;38.99;86.09;;
72466;Laerm;60471;52.150;4.508;2023-03-11T06:11:37;70.04;39.18;85.85;;
72466;Laerm;60471;52.150;4.508;2023-03-11T06:14:03;70.31;40.76;85.92;;
72466;Laerm;60471;52.150;4.508;2023-03-11T06:16:29;70.14;42.38;86.00;;
72466;Laerm;60471;52.150;4.508;2023-03-11T06:18:55;70.76;41.08;85.89;;
72466;Laerm;60471;52.150;4.508;2023-03-11T06:21:23;70.20;41.00;86.42;;
72466;Laerm;60471;52.150;4.508;2023-03-11T06:23:49;69.90;40.06;85.95;;
72466;Laerm;60471;52.150;4.508;2023-03-11T06:26:19;69.88;41.48;86.25;;
72466;Laerm;60471;52.150;4.508;2023-03-11T06:28:47;70.07;40.11;86.52;;
72466;Laerm;60471;52.150;4.508;2023-03-11T06:31:20;69.70;40.36;85.86;;
72466;Laerm;60471;52.150;4.508;2023-03-11T06:33:47;69.84;38.97;86.08;;
72466;Laerm;60471;52.150;4.508;2023-03-11T06:36:16;69.55;40.07;87.11;;
72466;Laerm;60471;52.150;4.508;2023-03-11T06:38:43;70.01;41.83;86.38;;
72466;Laerm;60471;52.150;4.508;2023-03-11T06:41:12;69.55;41.82;86.24;;
72466;Laerm;60471;52.150;4.508;2023-03-11T06:43:38;69.74;41.14;87.16;;
72466;Laerm;60471;52.150;4.508;2023-03-11T06:46:20;69.35;41.53;86.30;;
72466;Laerm;60471;52.150;4.508;2023-03-11T06:48:47;69.44;43.35;86.17;;
72466;Laerm;60471;52.150;4.508;2023-03-11T06:51:18;69.62;41.04;86.98;;
72466;Laerm;60471;52.150;4.508;2023-03-11T06:53:49;69.75;41.51;86.84;;
72466;Laerm;60471;52.150;4.508;2023-03-11T06:56:18;69.56;42.36;85.88;;
72466;Laerm;60471;52.150;4.508;2023-03-11T06:58:45;70.15;41.64;86.36;;
72466;Laerm;60471;52.150;4.508;2023-03-11T07:01:18;69.75;41.89;86.96;;
72466;Laerm;60471;52.150;4.508;2023-03-11T07:03:46;69.63;40.76;86.20;;
72466;Laerm;60471;52.150;4.508;2023-03-11T07:06:16;69.88;43.26;86.60;;
72466;Laerm;60471;52.150;4.508;2023-03-11T07:08:46;69.89;43.17;87.06;;
72466;Laerm;60471;52.150;4.508;2023-03-11T07:11:23;69.07;42.65;86.70;;
72466;Laerm;60471;52.150;4.508;2023-03-11T07:13:52;69.64;42.82;86.14;;
72466;Laerm;60471;52.150;4.508;2023-03-11T07:16:22;69.58;43.26;86.44;;
72466;Laerm;60471;52.150;4.508;2023-03-11T07:18:50;69.68;43.60;86.26;;
72466;Laerm;60471;52.150;4.508;2023-03-11T07:21:20;69.46;45.53;86.15;;
72466;Laerm;60471;52.150;4.508;2023-03-11T07:23:51;69.19;45.19;86.18;;
72466;Laerm;60471;52.150;4.508;2023-03-11T07:26:18;69.87;46.57;86.25;;
72466;Laerm;60471;52.150;4.508;2023-03-11T07:28:44;69.64;44.22;85.84;;
72466;Laerm;60471;52.150;4.508;2023-03-11T07:31:16;69.45;44.98;86.36;;
72466;Laerm;60471;52.150;4.508;2023-03-11T07:33:43;69.22;44.81;86.26;;
72466;Laerm;60471;52.150;4.508;2023-03-11T07:36:13;69.79;47.70;86.61;;
72466;Laerm;60471;52.150;4.508;2023-03-11T07:38:40;69.76;46.67;86.00;;
72466;Laerm;60471;52.150;4.508;2023-03-11T07:41:07;69.32;46.56;85.91;;
72466;Laerm;60471;52.150;4.508;2023-03-11T07:43:34;69.55;49.81;86.04;;
72466;Laerm;60471;52.150;4.508;2023-03-11T07:48:30;69.02;48.35;86.58;;
72466;Laerm;60471;52.150;4.508;2023-03-11T07:51:11;68.59;49.12;85.81;;
72466;Laerm;60471;52.150;4.508;2023-03-11T07:53:38;69.06;48.97;86.31;;
72466;Laerm;60471;52.150;4.508;2023-03-11T07:56:11;67.98;48.69;86.70;;
72466;Laerm;60471;52.150;4.508;2023-03-11T07:58:38;67.31;46.33;85.33;;
72466;Laerm;60471;52.150;4.508;2023-03-11T08:01:13;67.52;47.05;85.93;;
72466;Laerm;60471;52.150;4.508;2023-03-11T08:03:45;68.22;48.20;86.41;;
72466;Laerm;60471;52.150;4.508;2023-03-11T08:08:42;67.90;47.32;85.80;;
72466;Laerm;60471;52.150;4.508;2023-03-11T08:11:09;66.12;48.06;84.60;;
72466;Laerm;60471;52.150;4.508;2023-03-11T08:13:36;67.30;48.21;86.05;;
72466;Laerm;60471;52.150;4.508;2023-03-11T08:16:03;66.77;45.69;85.84;;
72466;Laerm;60471;52.150;4.508;2023-03-11T08:18:31;66.63;45.64;85.16;;
72466;Laerm;60471;52.150;4.508;2023-03-11T08:20:57;66.19;47.28;85.28;;
72466;Laerm;60471;52.150;4.508;2023-03-11T08:23:24;67.03;47.37;84.12;;
72466;Laerm;60471;52.150;4.508;2023-03-11T08:25:50;66.14;47.15;85.10;;
72466;Laerm;60471;52.150;4.508;2023-03-11T08:28:16;65.52;46.67;79.86;;
72466;Laerm;60471;52.150;4.508;2023-03-11T08:30:42;65.13;46.77;78.27;;
72466;Laerm;60471;52.150;4.508;2023-03-11T08:33:09;66.42;46.30;86.30;;
72466;Laerm;60471;52.150;4.508;2023-03-11T08:35:35;67.33;46.05;86.59;;
72466;Laerm;60471;52.150;4.508;2023-03-11T08:38:01;65.57;47.08;80.48;;
72466;Laerm;60471;52.150;4.508;2023-03-11T08:40:27;66.95;48.52;86.07;;
72466;Laerm;60471;52.150;4.508;2023-03-11T08:42:55;65.43;47.90;78.17;;
72466;Laerm;60471;52.150;4.508;2023-03-11T08:45:21;60.61;49.28;77.70;;
72466;Laerm;60471;52.150;4.508;2023-03-11T08:47:47;65.16;45.49;86.35;;
72466;Laerm;60471;52.150;4.508;2023-03-11T08:50:18;59.84;47.50;67.81;;
72466;Laerm;60471;52.150;4.508;2023-03-11T08:52:44;62.05;49.23;79.08;;
72466;Laerm;60471;52.150;4.508;2023-03-11T08:55:16;59.97;49.41;68.09;;
72466;Laerm;60471;52.150;4.508;2023-03-11T08:57:48;60.33;48.86;79.44;;
72466;Laerm;60471;52.150;4.508;2023-03-11T09:00:15;61.64;49.45;79.43;;
72466;Laerm;60471;52.150;4.508;2023-03-11T09:02:41;59.96;48.97;73.63;;
72466;Laerm;60471;52.150;4.508;2023-03-11T09:05:09;66.15;47.05;81.97;;
72466;Laerm;60471;52.150;4.508;2023-03-11T09:07:35;59.44;48.45;70.82;;
72466;Laerm;60471;52.150;4.508;2023-03-11T09:10:03;66.20;49.45;80.57;;
72466;Laerm;60471;52.150;4.508;2023-03-11T09:12:29;60.85;50.39;79.63;;
72466;Laerm;60471;52.150;4.508;2023-03-11T09:14:55;59.71;47.08;75.12;;
72466;Laerm;60471;52.150;4.508;2023-03-11T09:17:22;60.00;47.61;69.65;;
72466;Laerm;60471;52.150;4.508;2023-03-11T09:19:48;60.72;49.78;69.51;;
72466;Laerm;60471;52.150;4.508;2023-03-11T09:22:15;59.88;47.56;70.18;;
72466;Laerm;60471;52.150;4.508;2023-03-11T09:24:41;58.28;45.41;66.68;;
72466;Laerm;60471;52.150;4.508;2023-03-11T09:27:08;60.94;45.91;79.44;;
72466;Laerm;60471;52.150;4.508;2023-03-11T09:29:34;59.84;47.32;70.72;;
72466;Laerm;60471;52.150;4.508;2023-03-11T09:32:00;59.60;45.31;71.45;;
72466;Laerm;60471;52.150;4.508;2023-03-11T09:34:27;60.27;45.52;70.74;;
72466;Laerm;60471;52.150;4.508;2023-03-11T09:36:53;61.67;46.20;80.40;;
72466;Laerm;60471;52.150;4.508;2023-03-11T09:39:19;59.26;48.25;68.95;;
72466;Laerm;60471;52.150;4.508;2023-03-11T09:41:51;60.56;49.55;69.40;;
72466;Laerm;60471;52.150;4.508;2023-03-11T09:44:39;61.59;49.99;70.70;;
72466;Laerm;60471;52.150;4.508;2023-03-11T09:55:42;59.59;45.28;68.30;;
72466;Laerm;60471;52.150;4.508;2023-03-11T09:58:22;59.94;48.10;68.93;;
72466;Laerm;60471;52.150;4.508;2023-03-11T10:00:55;58.63;47.56;69.02;;
72466;Laerm;60471;52.150;4.508;2023-03-11T10:03:34;59.10;46.47;68.29;;
72466;Laerm;60471;52.150;4.508;2023-03-11T10:06:20;58.62;45.85;67.29;;
72466;Laerm;60471;52.150;4.508;2023-03-11T10:28:51;59.99;49.73;67.36;;
72466;Laerm;60471;52.150;4.508;2023-03-11T10:34:25;57.93;46.18;69.12;;
72466;Laerm;60471;52.150;4.508;2023-03-11T10:37:04;59.24;48.75;68.77;;
72466;Laerm;60471;52.150;4.508;2023-03-11T10:39:32;58.58;47.74;70.88;;
72466;Laerm;60471;52.150;4.508;2023-03-11T10:42:08;59.03;48.05;68.42;;
72466;Laerm;60471;52.150;4.508;2023-03-11T10:44:40;58.95;50.54;68.31;;
72466;Laerm;60471;52.150;4.508;2023-03-11T10:47:23;58.26;48.22;67.53;;
72466;Laerm;60471;52.150;4.508;2023-03-11T10:49:51;59.06;49.16;67.81;;
72466;Laerm;60471;52.150;4.508;2023-03-11T10:52:18;59.97;49.49;68.20;;
72466;Laerm;60471;52.150;4.508;2023-03-11T10:54:48;58.62;49.29;66.98;;
72466;Laerm;60471;52.150;4.508;2023-03-11T10:57:28;59.06;48.54;77.93;;
72466;Laerm;60471;52.150;4.508;2023-03-11T11:00:05;60.09;49.25;70.11;;
72466;Laerm;60471;52.150;4.508;2023-03-11T11:02:40;59.18;50.82;68.38;;
72466;Laerm;60471;52.150;4.508;2023-03-11T11:08:01;60.94;50.35;69.42;;
72466;Laerm;60471;52.150;4.508;2023-03-11T11:10:29;58.53;48.86;69.56;;
72466;Laerm;60471;52.150;4.508;2023-03-11T11:15:52;63.39;51.99;83.29;;
72466;Laerm;60471;52.150;4.508;2023-03-11T11:18:25;59.31;48.53;70.05;;
72466;Laerm;60471;52.150;4.508;2023-03-11T11:21:06;58.56;49.14;66.39;;
72466;Laerm;60471;52.150;4.508;2023-03-11T11:23:37;61.62;48.90;78.35;;
72466;Laerm;60471;52.150;4.508;2023-03-11T11:26:15;59.90;49.81;70.52;;
72466;Laerm;60471;52.150;4.508;2023-03-11T11:28:42;60.68;49.83;76.66;;
72466;Laerm;60471;52.150;4.508;2023-03-11T11:31:24;59.39;48.47;81.70;;
72466;Laerm;60471;52.150;4.508;2023-03-11T11:33:54;58.70;49.61;66.63;;
72466;Laerm;60471;52.150;4.508;2023-03-11T11:36:34;60.27;49.90;79.48;;
72466;Laerm;60471;52.150;4.508;2023-03-11T11:39:01;61.16;50.40;78.71;;
72466;Laerm;60471;52.150;4.508;2023-03-11T11:41:34;58.82;49.51;69.40;;
72466;Laerm;60471;52.150;4.508;2023-03-11T11:44:06;60.53;48.85;72.12;;
72466;Laerm;60471;52.150;4.508;2023-03-11T11:46:47;59.01;46.92;67.32;;
72466;Laerm;60471;52.150;4.508;2023-03-11T11:49:27;59.66;48.68;68.54;;
72466;Laerm;60471;52.150;4.508;2023-03-11T11:51:57;58.50;48.30;67.70;;
72466;Laerm;60471;52.150;4.508;2023-03-11T11:57:14;59.15;48.59;69.25;;
72466;Laerm;60471;52.150;4.508;2023-03-11T11:59:42;58.95;49.61;68.02;;
72466;Laerm;60471;52.150;4.508;2023-03-11T12:08:26;59.88;48.79;75.80;;
72466;Laerm;60471;52.150;4.508;2023-03-11T12:11:06;59.30;48.20;68.89;;
72466;Laerm;60471;52.150;4.508;2023-03-11T12:19:03;60.08;50.90;67.98;;
72466;Laerm;60471;52.150;4.508;2023-03-11T12:27:30;59.76;47.70;68.72;;
72466;Laerm;60471;52.150;4.508;2023-03-11T12:30:04;60.09;50.98;68.84;;
72466;Laerm;60471;52.150;4.508;2023-03-11T12:32:43;59.95;49.70;68.11;;
72466;Laerm;60471;52.150;4.508;2023-03-11T12:35:26;60.14;50.62;70.23;;
72466;Laerm;60471;52.150;4.508;2023-03-11T12:46:05;59.53;49.91;68.92;;
72466;Laerm;60471;52.150;4.508;2023-03-11T12:53:54;60.99;49.34;71.76;;
72466;Laerm;60471;52.150;4.508;2023-03-11T12:56:42;59.82;47.47;69.36;;
72466;Laerm;60471;52.150;4.508;2023-03-11T13:08:13;60.32;47.11;72.41;;
72466;Laerm;60471;52.150;4.508;2023-03-11T13:10:52;59.88;47.82;70.24;;
72466;Laerm;60471;52.150;4.508;2023-03-11T13:18:47;59.12;46.75;69.72;;
72466;Laerm;60471;52.150;4.508;2023-03-11T13:29:48;59.04;47.23;68.35;;
72466;Laerm;60471;52.150;4.508;2023-03-11T13:33:13;60.62;45.57;68.82;;
72466;Laerm;60471;52.150;4.508;2023-03-11T13:36:18;58.49;47.36;68.89;;
72466;Laerm;60471;52.150;4.508;2023-03-11T13:41:42;58.46;46.04;73.23;;
72466;Laerm;60471;52.150;4.508;2023-03-11T13:44:21;59.42;45.28;84.17;;
72466;Laerm;60471;52.150;4.508;2023-03-11T13:46:57;59.75;44.46;77.99;;
72466;Laerm;60471;52.150;4.508;2023-03-11T13:49:27;59.22;45.25;68.78;;
72466;Laerm;60471;52.150;4.508;2023-03-11T13:51:56;59.91;45.93;70.07;;
72466;Laerm;60471;52.150;4.508;2023-03-11T13:54:38;60.28;47.69;68.78;;
72466;Laerm;60471;52.150;4.508;2023-03-11T13:57:19;58.95;45.13;66.73;;
72466;Laerm;60471;52.150;4.508;2023-03-11T13:59:51;58.27;47.18;70.82;;
72466;Laerm;60471;52.150;4.508;2023-03-11T14:02:23;59.35;46.24;71.93;;
72466;Laerm;60471;52.150;4.508;2023-03-11T14:05:12;59.00;46.88;68.27;;
72466;Laerm;60471;52.150;4.508;2023-03-11T14:07:40;57.75;45.04;67.92;;
72466;Laerm;60471;52.150;4.508;2023-03-11T14:12:50;58.97;46.38;67.20;;
72466;Laerm;60471;52.150;4.508;2023-03-11T14:15:25;59.25;45.44;76.12;;
72466;Laerm;60471;52.150;4.508;2023-03-11T14:17:53;58.72;46.20;66.48;;
72466;Laerm;60471;52.150;4.508;2023-03-11T14:20:39;59.13;45.36;68.59;;
72466;Laerm;60471;52.150;4.508;2023-03-11T14:23:17;58.58;46.49;67.73;;
72466;Laerm;60471;52.150;4.508;2023-03-11T14:25:44;59.71;44.80;67.94;;
72466;Laerm;60471;52.150;4.508;2023-03-11T14:28:19;59.93;49.21;70.32;;
72466;Laerm;60471;52.150;4.508;2023-03-11T14:30:58;59.13;45.32;68.34;;
72466;Laerm;60471;52.150;4.508;2023-03-11T14:33:25;59.35;49.86;68.50;;
72466;Laerm;60471;52.150;4.508;2023-03-11T14:36:10;58.18;46.57;68.88;;
72466;Laerm;60471;52.150;4.508;2023-03-11T14:38:42;60.10;50.10;70.06;;
72466;Laerm;60471;52.150;4.508;2023-03-11T14:41:13;59.20;47.35;68.39;;
72466;Laerm;60471;52.150;4.508;2023-03-11T14:43:45;59.77;45.31;74.91;;
72466;Laerm;60471;52.150;4.508;2023-03-11T14:46:23;58.88;47.21;67.50;;
72466;Laerm;60471;52.150;4.508;2023-03-11T14:48:54;58.79;46.18;69.88;;
72466;Laerm;60471;52.150;4.508;2023-03-11T14:51:31;59.68;45.23;69.43;;
72466;Laerm;60471;52.150;4.508;2023-03-11T14:56:45;58.64;45.01;67.92;;
72466;Laerm;60471;52.150;4.508;2023-03-11T14:59:25;58.42;46.76;67.30;;
72466;Laerm;60471;52.150;4.508;2023-03-11T15:01:59;58.65;45.02;67.75;;
72466;Laerm;60471;52.150;4.508;2023-03-11T15:04:32;58.31;44.48;68.42;;
72466;Laerm;60471;52.150;4.508;2023-03-11T15:07:03;58.68;44.98;72.06;;
72466;Laerm;60471;52.150;4.508;2023-03-11T15:09:31;58.31;46.75;68.80;;
72466;Laerm;60471;52.150;4.508;2023-03-11T15:12:04;59.11;45.05;69.33;;
72466;Laerm;60471;52.150;4.508;2023-03-11T15:14:34;60.16;46.83;68.77;;
72466;Laerm;60471;52.150;4.508;2023-03-11T15:17:28;58.50;45.60;67.55;;
72466;Laerm;60471;52.150;4.508;2023-03-11T15:19:57;58.00;46.65;66.97;;
72466;Laerm;60471;52.150;4.508;2023-03-11T15:22:30;58.15;46.12;66.33;;
72466;Laerm;60471;52.150;4.508;2023-03-11T15:25:02;59.42;46.52;66.84;;
72466;Laerm;60471;52.150;4.508;2023-03-11T15:27:36;60.58;47.26;72.54;;
72466;Laerm;60471;52.150;4.508;2023-03-11T15:30:29;58.92;46.29;68.61;;
72466;Laerm;60471;52.150;4.508;2023-03-11T15:32:57;57.46;43.42;71.35;;
72466;Laerm;60471;52.150;4.508;2023-03-11T15:35:29;57.28;45.58;65.53;;
72466;Laerm;60471;52.150;4.508;2023-03-11T15:38:24;58.97;45.46;71.47;;
72466;Laerm;60471;52.150;4.508;2023-03-11T15:41:00;59.01;45.86;68.78;;
72466;Laerm;60471;52.150;4.508;2023-03-11T15:43:31;58.94;44.80;66.98;;
72466;Laerm;60471;52.150;4.508;2023-03-11T15:46:00;57.91;45.37;84.20;;
72466;Laerm;60471;52.150;4.508;2023-03-11T15:48:28;59.68;46.96;69.67;;
72466;Laerm;60471;52.150;4.508;2023-03-11T15:50:57;56.95;45.26;65.81;;
72466;Laerm;60471;52.150;4.508;2023-03-11T15:53:27;58.75;47.31;67.85;;
72466;Laerm;60471;52.150;4.508;2023-03-11T15:55:59;59.39;46.25;69.31;;
72466;Laerm;60471;52.150;4.508;2023-03-11T15:58:26;60.87;45.04;69.82;;